sensor_id;sensor_type;location;lat;lon;timestamp;temperature;humidity
48836;DHT22;62581;47.342;7.908;2022-08-19T00:01:15;19.60;99.90
48836;DHT22;62581;47.342;7.908;2022-08-19T00:03:42;19.60;99.90
48836;DHT22;62581;47.342;7.908;2022-08-19T00:06:09;19.60;99.90
48836;DHT22;62581;47.342;7.908;2022-08-19T00:08:38;19.50;99.90
48836;DHT22;62581;47.342;7.908;2022-08-19T00:11:05;19.60;99.90
48836;DHT22;62581;47.342;7.908;2022-08-19T00:13:33;19.60;99.90
48836;DHT22;62581;47.342;7.908;2022-08-19T00:16:01;19.50;99.90
48836;DHT22;62581;47.342;7.908;2022-08-19T00:18:28;19.50;99.90
48836;DHT22;62581;47.342;7.908;2022-08-19T00:20:55;19.50;99.90
48836;DHT22;62581;47.342;7.908;2022-08-19T00:23:22;19.50;99.90
48836;DHT22;62581;47.342;7.908;2022-08-19T00:25:50;19.50;99.90
48836;DHT22;62581;47.342;7.908;2022-08-19T00:28:17;19.50;99.90
48836;DHT22;62581;47.342;7.908;2022-08-19T00:30:45;19.50;99.90
48836;DHT22;62581;47.342;7.908;2022-08-19T00:33:12;19.50;99.90
48836;DHT22;62581;47.342;7.908;2022-08-19T00:35:40;19.50;99.90
48836;DHT22;62581;47.342;7.908;2022-08-19T00:38:07;19.50;99.90
48836;DHT22;62581;47.342;7.908;2022-08-19T00:40:34;19.40;99.90
48836;DHT22;62581;47.342;7.908;2022-08-19T00:43:08;19.50;99.90
48836;DHT22;62581;47.342;7.908;2022-08-19T00:45:35;19.40;99.90
48836;DHT22;62581;47.342;7.908;2022-08-19T00:48:02;19.40;99.90
48836;DHT22;62581;47.342;7.908;2022-08-19T00:50:30;19.40;99.90
48836;DHT22;62581;47.342;7.908;2022-08-19T00:52:58;19.40;99.90
48836;DHT22;62581;47.342;7.908;2022-08-19T00:55:26;19.40;99.90
48836;DHT22;62581;47.342;7.908;2022-08-19T00:57:57;19.40;99.90
48836;DHT22;62581;47.342;7.908;2022-08-19T01:00:27;19.40;99.90
48836;DHT22;62581;47.342;7.908;2022-08-19T01:02:54;19.40;99.90
48836;DHT22;62581;47.342;7.908;2022-08-19T01:05:24;19.40;99.90
48836;DHT22;62581;47.342;7.908;2022-08-19T01:07:53;19.40;99.90
48836;DHT22;62581;47.342;7.908;2022-08-19T01:10:24;19.40;99.90
48836;DHT22;62581;47.342;7.908;2022-08-19T01:12:52;19.40;99.90
48836;DHT22;62581;47.342;7.908;2022-08-19T01:15:24;19.40;99.90
48836;DHT22;62581;47.342;7.908;2022-08-19T01:17:55;19.40;99.90
48836;DHT22;62581;47.342;7.908;2022-08-19T01:20:24;19.30;99.90
48836;DHT22;62581;47.342;7.908;2022-08-19T01:22:54;19.30;99.90
48836;DHT22;62581;47.342;7.908;2022-08-19T01:25:24;19.30;99.90
48836;DHT22;62581;47.342;7.908;2022-08-19T01:27:52;19.40;99.90
48836;DHT22;62581;47.342;7.908;2022-08-19T01:30:22;19.30;99.90
48836;DHT22;62581;47.342;7.908;2022-08-19T01:32:50;19.30;99.90
48836;DHT22;62581;47.342;7.908;2022-08-19T01:35:18;19.30;99.90
48836;DHT22;62581;47.342;7.908;2022-08-19T01:37:47;19.30;99.90
48836;DHT22;62581;47.342;7.908;2022-08-19T01:40:17;19.30;99.90
48836;DHT22;62581;47.342;7.908;2022-08-19T01:42:45;19.30;99.90
48836;DHT22;62581;47.342;7.908;2022-08-19T01:45:13;19.20;99.90
48836;DHT22;62581;47.342;7.908;2022-08-19T01:47:40;19.20;99.90
48836;DHT22;62581;47.342;7.908;2022-08-19T01:50:09;19.20;99.90
48836;DHT22;62581;47.342;7.908;2022-08-19T01:52:36;19.20;99.90
48836;DHT22;62581;47.342;7.908;2022-08-19T01:55:06;19.20;99.90
48836;DHT22;62581;47.342;7.908;2022-08-19T01:57:35;19.20;99.90
48836;DHT22;62581;47.342;7.908;2022-08-19T02:00:04;19.20;99.90
48836;DHT22;62581;47.342;7.908;2022-08-19T02:02:34;19.20;99.90
48836;DHT22;62581;47.342;7.908;2022-08-19T02:05:01;19.10;99.90
48836;DHT22;62581;47.342;7.908;2022-08-19T02:07:28;19.10;99.90
48836;DHT22;62581;47.342;7.908;2022-08-19T02:09:55;19.20;99.90
48836;DHT22;62581;47.342;7.908;2022-08-19T02:12:23;19.10;99.90
48836;DHT22;62581;47.342;7.908;2022-08-19T02:14:51;19.10;99.90
48836;DHT22;62581;47.342;7.908;2022-08-19T02:17:18;19.10;99.90
48836;DHT22;62581;47.342;7.908;2022-08-19T02:19:45;19.10;99.90
48836;DHT22;62581;47.342;7.908;2022-08-19T02:22:14;19.10;99.90
48836;DHT22;62581;47.342;7.908;2022-08-19T02:24:41;19.00;99.90
48836;DHT22;62581;47.342;7.908;2022-08-19T02:27:08;19.10;99.90
48836;DHT22;62581;47.342;7.908;2022-08-19T02:29:35;19.00;99.90
48836;DHT22;62581;47.342;7.908;2022-08-19T02:32:03;19.10;99.90
48836;DHT22;62581;47.342;7.908;2022-08-19T02:34:30;19.10;99.90
48836;DHT22;62581;47.342;7.908;2022-08-19T02:36:57;19.10;99.90
48836;DHT22;62581;47.342;7.908;2022-08-19T02:39:24;19.10;99.90
48836;DHT22;62581;47.342;7.908;2022-08-19T02:41:51;19.00;99.90
48836;DHT22;62581;47.342;7.908;2022-08-19T02:44:18;19.10;99.90
48836;DHT22;62581;47.342;7.908;2022-08-19T02:46:47;19.10;99.90
48836;DHT22;62581;47.342;7.908;2022-08-19T02:49:16;19.20;99.90
48836;DHT22;62581;47.342;7.908;2022-08-19T02:51:45;19.20;99.90
48836;DHT22;62581;47.342;7.908;2022-08-19T02:54:14;19.10;99.90
48836;DHT22;62581;47.342;7.908;2022-08-19T02:56:42;19.20;99.90
48836;DHT22;62581;47.342;7.908;2022-08-19T02:59:09;19.10;99.90
48836;DHT22;62581;47.342;7.908;2022-08-19T03:01:38;19.20;99.90
48836;DHT22;62581;47.342;7.908;2022-08-19T03:04:08;19.10;99.90
48836;DHT22;62581;47.342;7.908;2022-08-19T03:06:38;19.00;99.90
48836;DHT22;62581;47.342;7.908;2022-08-19T03:09:05;19.10;99.90
48836;DHT22;62581;47.342;7.908;2022-08-19T03:11:33;19.10;99.90
48836;DHT22;62581;47.342;7.908;2022-08-19T03:14:01;19.10;99.90
48836;DHT22;62581;47.342;7.908;2022-08-19T03:16:31;19.10;99.90
48836;DHT22;62581;47.342;7.908;2022-08-19T03:18:59;19.10;99.90
48836;DHT22;62581;47.342;7.908;2022-08-19T03:21:28;19.20;99.90
48836;DHT22;62581;47.342;7.908;2022-08-19T03:23:59;19.10;99.90
48836;DHT22;62581;47.342;7.908;2022-08-19T03:26:26;19.20;99.90
48836;DHT22;62581;47.342;7.908;2022-08-19T03:28:53;19.20;99.90
48836;DHT22;62581;47.342;7.908;2022-08-19T03:31:22;19.20;99.90
48836;DHT22;62581;47.342;7.908;2022-08-19T03:33:52;19.20;99.90
48836;DHT22;62581;47.342;7.908;2022-08-19T03:36:21;19.20;99.90
48836;DHT22;62581;47.342;7.908;2022-08-19T03:38:50;19.20;99.90
48836;DHT22;62581;47.342;7.908;2022-08-19T03:41:21;19.20;99.90
48836;DHT22;62581;47.342;7.908;2022-08-19T03:43:48;19.20;99.90
48836;DHT22;62581;47.342;7.908;2022-08-19T03:46:17;19.20;99.90
48836;DHT22;62581;47.342;7.908;2022-08-19T03:48:47;19.20;99.90
48836;DHT22;62581;47.342;7.908;2022-08-19T03:51:18;19.20;99.90
48836;DHT22;62581;47.342;7.908;2022-08-19T03:53:46;19.20;99.90
48836;DHT22;62581;47.342;7.908;2022-08-19T03:56:14;19.20;99.90
48836;DHT22;62581;47.342;7.908;2022-08-19T03:58:43;19.20;99.90
48836;DHT22;62581;47.342;7.908;2022-08-19T04:01:12;19.20;99.90
48836;DHT22;62581;47.342;7.908;2022-08-19T04:03:40;19.20;99.90
48836;DHT22;62581;47.342;7.908;2022-08-19T04:06:11;19.20;99.90
48836;DHT22;62581;47.342;7.908;2022-08-19T04:08:39;19.20;99.90
48836;DHT22;62581;47.342;7.908;2022-08-19T04:11:07;19.20;99.90
48836;DHT22;62581;47.342;7.908;2022-08-19T04:13:35;19.10;99.90
48836;DHT22;62581;47.342;7.908;2022-08-19T04:16:03;19.10;99.90
48836;DHT22;62581;47.342;7.908;2022-08-19T04:18:31;19.10;99.90
48836;DHT22;62581;47.342;7.908;2022-08-19T04:20:59;19.10;99.90
48836;DHT22;62581;47.342;7.908;2022-08-19T04:23:26;19.10;99.90
48836;DHT22;62581;47.342;7.908;2022-08-19T04:25:54;19.10;99.90
48836;DHT22;62581;47.342;7.908;2022-08-19T04:28:21;19.10;99.90
48836;DHT22;62581;47.342;7.908;2022-08-19T04:30:51;19.10;99.90
48836;DHT22;62581;47.342;7.908;2022-08-19T04:33:21;19.10;99.90
48836;DHT22;62581;47.342;7.908;2022-08-19T04:35:51;19.10;99.90
48836;DHT22;62581;47.342;7.908;2022-08-19T04:38:20;19.20;99.90
48836;DHT22;62581;47.342;7.908;2022-08-19T04:40:50;19.20;99.90
48836;DHT22;62581;47.342;7.908;2022-08-19T04:43:37;19.20;99.90
48836;DHT22;62581;47.342;7.908;2022-08-19T04:46:05;19.20;99.90
48836;DHT22;62581;47.342;7.908;2022-08-19T04:48:35;19.20;99.90
48836;DHT22;62581;47.342;7.908;2022-08-19T04:51:06;19.20;99.90
48836;DHT22;62581;47.342;7.908;2022-08-19T04:53:35;19.10;99.90
48836;DHT22;62581;47.342;7.908;2022-08-19T04:56:05;19.10;99.90
48836;DHT22;62581;47.342;7.908;2022-08-19T04:58:34;19.20;99.90
48836;DHT22;62581;47.342;7.908;2022-08-19T05:01:01;19.20;99.90
48836;DHT22;62581;47.342;7.908;2022-08-19T05:03:29;19.10;99.90
48836;DHT22;62581;47.342;7.908;2022-08-19T05:06:04;19.20;99.90
48836;DHT22;62581;47.342;7.908;2022-08-19T05:08:34;19.20;99.90
48836;DHT22;62581;47.342;7.908;2022-08-19T05:11:07;19.20;99.90
48836;DHT22;62581;47.342;7.908;2022-08-19T05:13:34;19.20;99.90
48836;DHT22;62581;47.342;7.908;2022-08-19T05:16:01;19.20;99.90
48836;DHT22;62581;47.342;7.908;2022-08-19T05:18:28;19.30;99.90
48836;DHT22;62581;47.342;7.908;2022-08-19T05:21:16;19.30;99.90
48836;DHT22;62581;47.342;7.908;2022-08-19T05:24:00;19.20;99.90
48836;DHT22;62581;47.342;7.908;2022-08-19T05:26:28;19.30;99.90
48836;DHT22;62581;47.342;7.908;2022-08-19T05:28:55;19.30;99.90
48836;DHT22;62581;47.342;7.908;2022-08-19T05:31:22;19.30;99.90
48836;DHT22;62581;47.342;7.908;2022-08-19T05:33:49;19.30;99.90
48836;DHT22;62581;47.342;7.908;2022-08-19T05:36:18;19.30;99.90
48836;DHT22;62581;47.342;7.908;2022-08-19T05:38:45;19.30;99.90
48836;DHT22;62581;47.342;7.908;2022-08-19T05:41:13;19.40;99.90
48836;DHT22;62581;47.342;7.908;2022-08-19T05:43:42;19.40;99.90
48836;DHT22;62581;47.342;7.908;2022-08-19T05:46:16;19.40;99.90
48836;DHT22;62581;47.342;7.908;2022-08-19T05:48:44;19.40;99.90
48836;DHT22;62581;47.342;7.908;2022-08-19T05:51:11;19.50;99.90
48836;DHT22;62581;47.342;7.908;2022-08-19T05:53:39;19.50;99.90
48836;DHT22;62581;47.342;7.908;2022-08-19T05:56:07;19.50;99.90
48836;DHT22;62581;47.342;7.908;2022-08-19T05:58:35;19.60;99.90
48836;DHT22;62581;47.342;7.908;2022-08-19T06:01:03;19.50;99.90
48836;DHT22;62581;47.342;7.908;2022-08-19T06:03:32;19.60;99.90
48836;DHT22;62581;47.342;7.908;2022-08-19T06:06:00;19.60;99.90
48836;DHT22;62581;47.342;7.908;2022-08-19T06:08:28;19.70;99.90
48836;DHT22;62581;47.342;7.908;2022-08-19T06:10:57;19.70;99.90
48836;DHT22;62581;47.342;7.908;2022-08-19T06:13:24;19.70;99.90
48836;DHT22;62581;47.342;7.908;2022-08-19T06:15:51;19.70;99.90
48836;DHT22;62581;47.342;7.908;2022-08-19T06:18:18;19.70;99.90
48836;DHT22;62581;47.342;7.908;2022-08-19T06:20:45;19.70;99.90
48836;DHT22;62581;47.342;7.908;2022-08-19T06:23:12;19.70;99.90
48836;DHT22;62581;47.342;7.908;2022-08-19T06:25:39;19.70;99.90
48836;DHT22;62581;47.342;7.908;2022-08-19T06:28:08;19.70;99.90
48836;DHT22;62581;47.342;7.908;2022-08-19T06:30:36;19.60;99.90
48836;DHT22;62581;47.342;7.908;2022-08-19T06:33:03;19.60;99.90
48836;DHT22;62581;47.342;7.908;2022-08-19T06:35:31;19.60;99.90
48836;DHT22;62581;47.342;7.908;2022-08-19T06:37:57;19.60;99.90
48836;DHT22;62581;47.342;7.908;2022-08-19T06:40:24;19.60;99.90
48836;DHT22;62581;47.342;7.908;2022-08-19T06:42:53;19.60;99.90
48836;DHT22;62581;47.342;7.908;2022-08-19T06:45:23;19.60;99.90
48836;DHT22;62581;47.342;7.908;2022-08-19T06:47:51;19.60;99.90
48836;DHT22;62581;47.342;7.908;2022-08-19T06:50:21;19.60;99.90
48836;DHT22;62581;47.342;7.908;2022-08-19T06:52:48;19.60;99.90
48836;DHT22;62581;47.342;7.908;2022-08-19T06:55:15;19.60;99.90
48836;DHT22;62581;47.342;7.908;2022-08-19T06:57:45;19.70;99.90
48836;DHT22;62581;47.342;7.908;2022-08-19T07:00:12;19.70;99.90
48836;DHT22;62581;47.342;7.908;2022-08-19T07:02:41;19.80;99.90
48836;DHT22;62581;47.342;7.908;2022-08-19T07:05:09;19.80;99.90
48836;DHT22;62581;47.342;7.908;2022-08-19T07:07:36;19.80;99.90
48836;DHT22;62581;47.342;7.908;2022-08-19T07:10:04;19.90;99.90
48836;DHT22;62581;47.342;7.908;2022-08-19T07:12:32;19.90;99.90
48836;DHT22;62581;47.342;7.908;2022-08-19T07:14:59;19.90;99.90
48836;DHT22;62581;47.342;7.908;2022-08-19T07:17:27;19.90;99.90
48836;DHT22;62581;47.342;7.908;2022-08-19T07:19:55;19.80;99.90
48836;DHT22;62581;47.342;7.908;2022-08-19T07:22:22;19.80;99.90
48836;DHT22;62581;47.342;7.908;2022-08-19T07:24:50;19.80;99.90
48836;DHT22;62581;47.342;7.908;2022-08-19T07:27:18;19.70;99.90
48836;DHT22;62581;47.342;7.908;2022-08-19T07:29:45;19.70;99.90
48836;DHT22;62581;47.342;7.908;2022-08-19T07:32:12;19.80;99.90
48836;DHT22;62581;47.342;7.908;2022-08-19T07:34:39;19.80;99.90
48836;DHT22;62581;47.342;7.908;2022-08-19T07:37:07;19.80;99.90
48836;DHT22;62581;47.342;7.908;2022-08-19T07:39:37;19.70;99.90
48836;DHT22;62581;47.342;7.908;2022-08-19T07:42:06;19.70;99.90
48836;DHT22;62581;47.342;7.908;2022-08-19T07:44:33;19.70;99.90
48836;DHT22;62581;47.342;7.908;2022-08-19T07:47:01;19.70;99.90
48836;DHT22;62581;47.342;7.908;2022-08-19T07:49:28;19.70;99.90
48836;DHT22;62581;47.342;7.908;2022-08-19T07:51:57;19.70;99.90
48836;DHT22;62581;47.342;7.908;2022-08-19T07:54:32;19.70;99.90
48836;DHT22;62581;47.342;7.908;2022-08-19T07:57:01;19.80;99.90
48836;DHT22;62581;47.342;7.908;2022-08-19T07:59:29;19.80;99.90
48836;DHT22;62581;47.342;7.908;2022-08-19T08:01:57;19.80;99.90
48836;DHT22;62581;47.342;7.908;2022-08-19T08:04:26;19.90;99.90
48836;DHT22;62581;47.342;7.908;2022-08-19T08:07:08;19.90;99.90
48836;DHT22;62581;47.342;7.908;2022-08-19T08:09:53;19.90;99.90
48836;DHT22;62581;47.342;7.908;2022-08-19T08:12:22;20.00;99.90
48836;DHT22;62581;47.342;7.908;2022-08-19T08:14:53;20.00;99.90
48836;DHT22;62581;47.342;7.908;2022-08-19T08:17:23;20.00;99.90
48836;DHT22;62581;47.342;7.908;2022-08-19T08:19:51;20.00;99.90
48836;DHT22;62581;47.342;7.908;2022-08-19T08:22:20;20.00;99.90
48836;DHT22;62581;47.342;7.908;2022-08-19T08:25:10;20.10;99.90
48836;DHT22;62581;47.342;7.908;2022-08-19T08:27:38;20.10;99.90
48836;DHT22;62581;47.342;7.908;2022-08-19T08:30:07;20.10;99.90
48836;DHT22;62581;47.342;7.908;2022-08-19T08:32:35;20.20;99.90
48836;DHT22;62581;47.342;7.908;2022-08-19T08:35:03;20.30;99.90
48836;DHT22;62581;47.342;7.908;2022-08-19T08:37:30;20.40;99.90
48836;DHT22;62581;47.342;7.908;2022-08-19T08:39:57;20.40;99.90
48836;DHT22;62581;47.342;7.908;2022-08-19T08:42:29;20.40;99.90
48836;DHT22;62581;47.342;7.908;2022-08-19T08:45:00;20.40;99.90
48836;DHT22;62581;47.342;7.908;2022-08-19T08:47:31;20.40;99.90
48836;DHT22;62581;47.342;7.908;2022-08-19T08:50:05;20.30;99.90
48836;DHT22;62581;47.342;7.908;2022-08-19T08:52:36;20.30;99.90
48836;DHT22;62581;47.342;7.908;2022-08-19T08:55:10;20.20;99.90
48836;DHT22;62581;47.342;7.908;2022-08-19T08:57:41;20.20;99.90
48836;DHT22;62581;47.342;7.908;2022-08-19T09:00:14;20.30;99.90
48836;DHT22;62581;47.342;7.908;2022-08-19T09:02:42;20.40;99.90
48836;DHT22;62581;47.342;7.908;2022-08-19T09:05:09;20.50;99.90
48836;DHT22;62581;47.342;7.908;2022-08-19T09:07:49;20.70;99.90
48836;DHT22;62581;47.342;7.908;2022-08-19T09:10:28;20.80;99.90
48836;DHT22;62581;47.342;7.908;2022-08-19T09:13:03;21.00;99.90
48836;DHT22;62581;47.342;7.908;2022-08-19T09:15:38;21.10;99.90
48836;DHT22;62581;47.342;7.908;2022-08-19T09:18:08;21.20;99.90
48836;DHT22;62581;47.342;7.908;2022-08-19T09:20:35;21.20;99.90
48836;DHT22;62581;47.342;7.908;2022-08-19T09:23:02;21.20;99.90
48836;DHT22;62581;47.342;7.908;2022-08-19T09:25:29;21.20;99.90
48836;DHT22;62581;47.342;7.908;2022-08-19T09:27:58;21.20;99.90
48836;DHT22;62581;47.342;7.908;2022-08-19T09:30:30;21.20;99.90
48836;DHT22;62581;47.342;7.908;2022-08-19T09:32:57;21.10;99.90
48836;DHT22;62581;47.342;7.908;2022-08-19T09:35:26;21.10;99.90
48836;DHT22;62581;47.342;7.908;2022-08-19T09:37:54;21.00;99.90
48836;DHT22;62581;47.342;7.908;2022-08-19T09:40:22;21.00;99.90
48836;DHT22;62581;47.342;7.908;2022-08-19T09:42:50;21.00;99.90
48836;DHT22;62581;47.342;7.908;2022-08-19T09:45:21;21.00;99.90
48836;DHT22;62581;47.342;7.908;2022-08-19T09:47:49;21.00;99.90
48836;DHT22;62581;47.342;7.908;2022-08-19T09:50:16;21.10;99.90
48836;DHT22;62581;47.342;7.908;2022-08-19T09:52:44;21.00;99.90
48836;DHT22;62581;47.342;7.908;2022-08-19T09:55:11;21.00;99.90
48836;DHT22;62581;47.342;7.908;2022-08-19T09:57:38;21.00;99.90
48836;DHT22;62581;47.342;7.908;2022-08-19T10:00:07;21.00;99.90
48836;DHT22;62581;47.342;7.908;2022-08-19T10:02:37;21.10;99.90
48836;DHT22;62581;47.342;7.908;2022-08-19T10:05:04;21.20;99.90
48836;DHT22;62581;47.342;7.908;2022-08-19T10:07:49;21.30;99.90
48836;DHT22;62581;47.342;7.908;2022-08-19T10:10:17;21.40;99.90
48836;DHT22;62581;47.342;7.908;2022-08-19T10:12:44;21.40;99.90
48836;DHT22;62581;47.342;7.908;2022-08-19T10:15:13;21.50;99.90
48836;DHT22;62581;47.342;7.908;2022-08-19T10:17:41;21.70;99.90
48836;DHT22;62581;47.342;7.908;2022-08-19T10:20:09;22.00;99.90
48836;DHT22;62581;47.342;7.908;2022-08-19T10:22:36;22.30;99.90
48836;DHT22;62581;47.342;7.908;2022-08-19T10:25:05;22.70;99.90
48836;DHT22;62581;47.342;7.908;2022-08-19T10:27:32;23.00;99.90
48836;DHT22;62581;47.342;7.908;2022-08-19T10:29:59;23.10;99.90
48836;DHT22;62581;47.342;7.908;2022-08-19T10:32:26;23.20;99.90
48836;DHT22;62581;47.342;7.908;2022-08-19T10:34:56;23.30;99.90
48836;DHT22;62581;47.342;7.908;2022-08-19T10:37:23;23.30;99.90
48836;DHT22;62581;47.342;7.908;2022-08-19T10:39:50;23.40;99.90
48836;DHT22;62581;47.342;7.908;2022-08-19T10:42:18;23.50;99.90
48836;DHT22;62581;47.342;7.908;2022-08-19T10:44:46;23.60;99.90
48836;DHT22;62581;47.342;7.908;2022-08-19T10:47:13;23.70;99.90
48836;DHT22;62581;47.342;7.908;2022-08-19T10:49:41;23.80;99.90
48836;DHT22;62581;47.342;7.908;2022-08-19T10:52:23;23.70;99.90
48836;DHT22;62581;47.342;7.908;2022-08-19T10:55:04;23.60;99.90
48836;DHT22;62581;47.342;7.908;2022-08-19T10:57:49;23.40;99.90
48836;DHT22;62581;47.342;7.908;2022-08-19T11:00:19;23.00;99.90
48836;DHT22;62581;47.342;7.908;2022-08-19T11:02:46;22.50;99.90
48836;DHT22;62581;47.342;7.908;2022-08-19T11:05:13;22.40;99.90
48836;DHT22;62581;47.342;7.908;2022-08-19T11:07:42;22.40;99.90
48836;DHT22;62581;47.342;7.908;2022-08-19T11:10:12;22.50;99.90
48836;DHT22;62581;47.342;7.908;2022-08-19T11:12:40;22.50;99.90
48836;DHT22;62581;47.342;7.908;2022-08-19T11:15:09;22.50;99.90
48836;DHT22;62581;47.342;7.908;2022-08-19T11:17:38;22.60;99.90
48836;DHT22;62581;47.342;7.908;2022-08-19T11:20:10;22.60;99.90
48836;DHT22;62581;47.342;7.908;2022-08-19T11:22:38;22.50;99.90
48836;DHT22;62581;47.342;7.908;2022-08-19T11:25:08;22.40;99.90
48836;DHT22;62581;47.342;7.908;2022-08-19T11:27:38;22.30;99.90
48836;DHT22;62581;47.342;7.908;2022-08-19T11:30:08;22.20;99.90
48836;DHT22;62581;47.342;7.908;2022-08-19T11:32:35;22.20;99.90
48836;DHT22;62581;47.342;7.908;2022-08-19T11:35:02;22.00;99.90
48836;DHT22;62581;47.342;7.908;2022-08-19T11:37:29;21.70;99.90
48836;DHT22;62581;47.342;7.908;2022-08-19T11:39:56;21.50;99.90
48836;DHT22;62581;47.342;7.908;2022-08-19T11:42:24;21.30;99.90
48836;DHT22;62581;47.342;7.908;2022-08-19T11:45:09;21.20;99.90
48836;DHT22;62581;47.342;7.908;2022-08-19T11:47:39;21.10;99.90
48836;DHT22;62581;47.342;7.908;2022-08-19T11:50:06;21.10;99.90
48836;DHT22;62581;47.342;7.908;2022-08-19T11:52:33;21.10;99.90
48836;DHT22;62581;47.342;7.908;2022-08-19T11:55:01;21.00;99.90
48836;DHT22;62581;47.342;7.908;2022-08-19T11:57:29;21.00;99.90
48836;DHT22;62581;47.342;7.908;2022-08-19T11:59:56;21.10;99.90
48836;DHT22;62581;47.342;7.908;2022-08-19T12:02:23;21.10;99.90
48836;DHT22;62581;47.342;7.908;2022-08-19T12:04:51;21.30;99.90
48836;DHT22;62581;47.342;7.908;2022-08-19T12:07:18;21.40;99.90
48836;DHT22;62581;47.342;7.908;2022-08-19T12:09:45;21.80;99.90
48836;DHT22;62581;47.342;7.908;2022-08-19T12:12:14;22.10;99.90
48836;DHT22;62581;47.342;7.908;2022-08-19T12:14:43;22.40;99.90
48836;DHT22;62581;47.342;7.908;2022-08-19T12:17:11;22.60;99.90
48836;DHT22;62581;47.342;7.908;2022-08-19T12:19:39;22.70;99.90
48836;DHT22;62581;47.342;7.908;2022-08-19T12:22:06;22.70;99.90
48836;DHT22;62581;47.342;7.908;2022-08-19T12:24:33;22.60;99.90
48836;DHT22;62581;47.342;7.908;2022-08-19T12:27:00;22.50;99.90
48836;DHT22;62581;47.342;7.908;2022-08-19T12:29:28;22.40;99.90
48836;DHT22;62581;47.342;7.908;2022-08-19T12:31:58;22.30;99.90
48836;DHT22;62581;47.342;7.908;2022-08-19T12:34:27;22.20;99.90
48836;DHT22;62581;47.342;7.908;2022-08-19T12:36:55;22.10;99.90
48836;DHT22;62581;47.342;7.908;2022-08-19T12:39:22;22.10;99.90
48836;DHT22;62581;47.342;7.908;2022-08-19T12:41:50;22.20;99.90
48836;DHT22;62581;47.342;7.908;2022-08-19T12:44:17;22.20;99.90
48836;DHT22;62581;47.342;7.908;2022-08-19T12:46:44;22.30;99.90
48836;DHT22;62581;47.342;7.908;2022-08-19T12:49:13;22.40;99.90
48836;DHT22;62581;47.342;7.908;2022-08-19T12:51:41;22.50;99.90
48836;DHT22;62581;47.342;7.908;2022-08-19T12:54:08;22.50;99.90
48836;DHT22;62581;47.342;7.908;2022-08-19T12:56:36;22.50;99.90
48836;DHT22;62581;47.342;7.908;2022-08-19T12:59:04;22.50;99.90
48836;DHT22;62581;47.342;7.908;2022-08-19T13:01:33;22.50;99.90
48836;DHT22;62581;47.342;7.908;2022-08-19T13:04:00;22.50;99.90
48836;DHT22;62581;47.342;7.908;2022-08-19T13:06:29;22.60;99.90
48836;DHT22;62581;47.342;7.908;2022-08-19T13:08:56;22.60;99.90
48836;DHT22;62581;47.342;7.908;2022-08-19T13:11:23;22.60;99.90
48836;DHT22;62581;47.342;7.908;2022-08-19T13:13:51;22.60;99.90
48836;DHT22;62581;47.342;7.908;2022-08-19T13:16:21;22.50;99.90
48836;DHT22;62581;47.342;7.908;2022-08-19T13:18:49;22.40;99.90
48836;DHT22;62581;47.342;7.908;2022-08-19T13:21:18;22.30;99.90
48836;DHT22;62581;47.342;7.908;2022-08-19T13:23:47;22.30;99.90
48836;DHT22;62581;47.342;7.908;2022-08-19T13:26:14;22.40;99.90
48836;DHT22;62581;47.342;7.908;2022-08-19T13:28:42;22.40;99.90
48836;DHT22;62581;47.342;7.908;2022-08-19T13:31:29;22.50;99.90
48836;DHT22;62581;47.342;7.908;2022-08-19T13:34:14;22.50;99.90
48836;DHT22;62581;47.342;7.908;2022-08-19T13:36:42;22.50;99.90
48836;DHT22;62581;47.342;7.908;2022-08-19T13:39:11;22.50;99.90
48836;DHT22;62581;47.342;7.908;2022-08-19T13:41:44;22.50;99.90
48836;DHT22;62581;47.342;7.908;2022-08-19T13:44:13;22.50;99.90
48836;DHT22;62581;47.342;7.908;2022-08-19T13:46:41;22.50;99.90
48836;DHT22;62581;47.342;7.908;2022-08-19T13:49:10;22.50;99.90
48836;DHT22;62581;47.342;7.908;2022-08-19T13:51:38;22.50;99.90
48836;DHT22;62581;47.342;7.908;2022-08-19T13:54:06;22.50;99.90
48836;DHT22;62581;47.342;7.908;2022-08-19T13:56:39;22.50;99.90
48836;DHT22;62581;47.342;7.908;2022-08-19T13:59:06;22.40;99.90
48836;DHT22;62581;47.342;7.908;2022-08-19T14:01:33;22.40;99.90
48836;DHT22;62581;47.342;7.908;2022-08-19T14:04:00;22.40;99.90
48836;DHT22;62581;47.342;7.908;2022-08-19T14:06:27;22.40;99.90
48836;DHT22;62581;47.342;7.908;2022-08-19T14:08:54;22.30;99.90
48836;DHT22;62581;47.342;7.908;2022-08-19T14:11:21;22.20;99.90
48836;DHT22;62581;47.342;7.908;2022-08-19T14:13:50;22.20;99.90
48836;DHT22;62581;47.342;7.908;2022-08-19T14:16:17;22.10;99.90
48836;DHT22;62581;47.342;7.908;2022-08-19T14:18:44;22.10;99.90
48836;DHT22;62581;47.342;7.908;2022-08-19T14:21:15;22.20;99.90
48836;DHT22;62581;47.342;7.908;2022-08-19T14:23:42;22.30;99.90
48836;DHT22;62581;47.342;7.908;2022-08-19T14:26:12;22.50;99.90
48836;DHT22;62581;47.342;7.908;2022-08-19T14:28:39;22.70;99.90
48836;DHT22;62581;47.342;7.908;2022-08-19T14:31:08;22.90;99.90
48836;DHT22;62581;47.342;7.908;2022-08-19T14:33:35;23.00;99.90
48836;DHT22;62581;47.342;7.908;2022-08-19T14:36:03;23.10;99.90
48836;DHT22;62581;47.342;7.908;2022-08-19T14:38:30;23.00;99.90
48836;DHT22;62581;47.342;7.908;2022-08-19T14:41:07;22.80;99.90
48836;DHT22;62581;47.342;7.908;2022-08-19T14:43:34;22.70;99.90
48836;DHT22;62581;47.342;7.908;2022-08-19T14:46:01;22.60;99.90
48836;DHT22;62581;47.342;7.908;2022-08-19T14:48:29;22.50;99.90
48836;DHT22;62581;47.342;7.908;2022-08-19T14:50:56;22.40;99.90
48836;DHT22;62581;47.342;7.908;2022-08-19T14:53:23;22.30;99.90
48836;DHT22;62581;47.342;7.908;2022-08-19T14:55:51;22.10;99.90
48836;DHT22;62581;47.342;7.908;2022-08-19T14:58:18;22.00;99.90
48836;DHT22;62581;47.342;7.908;2022-08-19T15:00:45;21.90;99.90
48836;DHT22;62581;47.342;7.908;2022-08-19T15:03:12;21.80;99.90
48836;DHT22;62581;47.342;7.908;2022-08-19T15:05:40;21.70;99.90
48836;DHT22;62581;47.342;7.908;2022-08-19T15:08:07;21.70;99.90
48836;DHT22;62581;47.342;7.908;2022-08-19T15:10:34;21.60;99.90
48836;DHT22;62581;47.342;7.908;2022-08-19T15:13:01;21.60;99.90
48836;DHT22;62581;47.342;7.908;2022-08-19T15:15:28;21.50;99.90
48836;DHT22;62581;47.342;7.908;2022-08-19T15:17:55;21.40;99.90
48836;DHT22;62581;47.342;7.908;2022-08-19T15:20:28;21.40;99.90
48836;DHT22;62581;47.342;7.908;2022-08-19T15:22:57;21.40;99.90
48836;DHT22;62581;47.342;7.908;2022-08-19T15:25:25;21.30;99.90
48836;DHT22;62581;47.342;7.908;2022-08-19T15:27:53;21.30;99.90
48836;DHT22;62581;47.342;7.908;2022-08-19T15:30:22;21.20;99.90
48836;DHT22;62581;47.342;7.908;2022-08-19T15:32:49;21.10;99.90
48836;DHT22;62581;47.342;7.908;2022-08-19T15:35:18;21.00;99.90
48836;DHT22;62581;47.342;7.908;2022-08-19T15:37:48;20.90;99.90
48836;DHT22;62581;47.342;7.908;2022-08-19T15:40:17;20.90;99.90